createdAt,value
2022-09-06T00:01:25.714Z,13.37
2022-09-06T00:07:27.627Z,15.83
2022-09-06T00:13:29.521Z,19.77
2022-09-06T00:19:31.317Z,19.03
2022-09-06T00:25:33.985Z,16.33
2022-09-06T00:31:35.861Z,15.57
2022-09-06T00:37:37.727Z,12.57
2022-09-06T00:43:40.689Z,15.87
2022-09-06T00:49:47.063Z,13.90
2022-09-06T00:55:49.429Z,15.63
2022-09-06T01:01:51.370Z,14.60
2022-09-06T01:08:16.832Z,22.60
2022-09-06T01:14:37.245Z,15.17
2022-09-06T01:20:54.249Z,14.37
2022-09-06T01:27:24.949Z,17.10
2022-09-06T01:34:05.278Z,15.10
2022-09-06T01:40:08.119Z,11.80
2022-09-06T01:46:09.944Z,15.57
2022-09-06T01:52:26.525Z,15.00
2022-09-06T01:59:06.937Z,12.20
2022-09-06T02:05:14.685Z,16.67
2022-09-06T02:11:17.170Z,11.87
2022-09-06T02:17:23.970Z,11.67
2022-09-06T02:23:31.357Z,14.53
2022-09-06T02:29:34.280Z,10.53
2022-09-06T02:35:45.110Z,12.17
2022-09-06T02:41:48.385Z,13.53
2022-09-06T02:47:50.186Z,8.47
2022-09-06T02:53:52.108Z,14.23
2022-09-06T02:59:53.944Z,15.83
2022-09-06T03:05:56.390Z,11.97
2022-09-06T03:11:58.154Z,15.07
2022-09-06T03:18:00.254Z,13.87
2022-09-06T03:24:02.284Z,12.40
2022-09-06T03:30:06.163Z,16.63
2022-09-06T03:36:07.996Z,13.23
2022-09-06T03:42:09.903Z,15.00
2022-09-06T03:48:11.739Z,11.17
2022-09-06T03:54:13.740Z,13.90
2022-09-06T04:00:15.915Z,17.10
2022-09-06T04:06:17.874Z,16.40
2022-09-06T04:12:19.770Z,13.13
2022-09-06T04:18:22.123Z,15.80
2022-09-06T04:24:24.048Z,16.27
2022-09-06T04:30:26.076Z,44.90
2022-09-06T04:36:28.126Z,30.77
2022-09-06T04:42:30.034Z,18.70
2022-09-06T04:48:31.961Z,21.10
2022-09-06T04:54:33.912Z,25.43
2022-09-06T05:00:36.600Z,23.80
2022-09-06T05:06:40.142Z,25.30
2022-09-06T05:12:44.293Z,23.37
2022-09-06T05:18:46.287Z,23.97
2022-09-06T05:24:48.163Z,14.77
2022-09-06T05:30:50.043Z,16.23
2022-09-06T05:36:51.912Z,16.53
2022-09-06T05:42:53.693Z,13.93
2022-09-06T05:48:58.231Z,13.97
2022-09-06T05:55:00.009Z,17.07
2022-09-06T06:01:16.230Z,17.57
2022-09-06T06:07:18.365Z,15.63
2022-09-06T06:13:20.183Z,16.67
2022-09-06T06:19:22.010Z,18.07
2022-09-06T06:25:26.378Z,15.23
2022-09-06T06:31:30.249Z,14.93
2022-09-06T06:37:36.731Z,26.07
2022-09-06T06:43:38.596Z,18.50
2022-09-06T06:49:40.363Z,15.33
2022-09-06T06:55:48.215Z,11.57
2022-09-06T07:01:57.534Z,11.30
2022-09-06T07:07:59.609Z,11.77
2022-09-06T07:14:01.467Z,13.80
2022-09-06T07:20:18.910Z,14.80
2022-09-06T07:26:26.347Z,17.93
2022-09-06T07:32:28.142Z,14.37
2022-09-06T07:38:31.541Z,12.87
2022-09-06T07:44:33.352Z,6.87
2022-09-06T07:50:51.855Z,12.73
2022-09-06T07:56:55.927Z,8.17
2022-09-06T08:03:00.312Z,7.60
2022-09-06T08:09:03.905Z,8.37
2022-09-06T08:15:06.571Z,12.23
2022-09-06T08:21:13.399Z,11.90
2022-09-06T08:27:15.156Z,8.63
2022-09-06T08:39:54.936Z,9.13
2022-09-06T08:45:57.468Z,7.00
2022-09-06T08:52:18.105Z,11.27
2022-09-06T09:04:57.558Z,4.07
2022-09-06T09:11:10.489Z,5.83
2022-09-06T09:17:27.988Z,4.67
2022-09-06T09:23:31.288Z,3.37
2022-09-06T09:35:52.757Z,3.40
2022-09-06T09:41:55.203Z,5.63
2022-09-06T09:47:57.920Z,2.27
2022-09-06T09:54:02.394Z,2.50
2022-09-06T10:00:13.460Z,3.50
2022-09-06T10:13:47.259Z,2.40
2022-09-06T10:26:46.749Z,9.30
2022-09-06T10:33:00.256Z,4.77
2022-09-06T10:39:43.763Z,15.83
2022-09-06T10:46:05.319Z,3.90
2022-09-06T10:52:11.889Z,3.70
2022-09-06T10:58:19.055Z,2.27
2022-09-06T11:10:57.344Z,7.73
2022-09-06T11:17:05.293Z,5.87
2022-09-06T11:36:50.990Z,7.77
2022-09-06T11:42:53.071Z,9.33
2022-09-06T11:49:02.992Z,2.57
2022-09-06T11:55:10.752Z,3.30
2022-09-06T12:01:12.600Z,5.57
2022-09-06T12:14:28.433Z,4.97
2022-09-06T12:33:41.053Z,6.78
2022-09-06T13:18:51.564Z,7.03
2022-09-06T13:37:41.940Z,7.93
2022-09-06T13:43:45.980Z,8.10
2022-09-06T13:56:48.270Z,8.27
2022-09-06T14:15:46.742Z,8.60
2022-09-06T14:21:48.905Z,6.72
2022-09-06T14:34:15.254Z,10.60
2022-09-06T14:40:17.767Z,11.82
2022-09-06T14:46:22.738Z,10.43
2022-09-06T14:52:39.166Z,5.82
2022-09-06T14:58:42.800Z,8.85
2022-09-06T15:04:47.473Z,11.93
2022-09-06T15:10:56.181Z,5.82
2022-09-06T15:23:32.767Z,15.57
2022-09-06T15:29:34.781Z,50.60
2022-09-06T15:35:38.617Z,17.80
2022-09-06T15:41:41.486Z,9.38
2022-09-06T15:47:43.480Z,6.00
2022-09-06T15:53:46.877Z,7.03
2022-09-06T16:02:09.634Z,11.90
2022-09-06T16:06:53.290Z,10.63
2022-09-06T16:12:55.749Z,19.47
2022-09-06T16:18:59.139Z,19.77
2022-09-06T16:25:01.116Z,10.07
2022-09-06T16:31:08.543Z,31.40
2022-09-06T16:37:10.564Z,27.63
2022-09-06T16:43:13.214Z,41.63
2022-09-06T16:49:17.274Z,65.57
2022-09-06T16:55:19.349Z,58.97
2022-09-06T17:01:21.969Z,54.83
2022-09-06T17:07:24.899Z,106.67
2022-09-06T17:13:27.758Z,162.90
2022-09-06T17:19:30.102Z,37.87
2022-09-06T17:25:32.993Z,31.40
2022-09-06T17:31:35.777Z,69.53
2022-09-06T17:37:37.571Z,56.37
2022-09-06T17:43:39.444Z,76.73
2022-09-06T17:49:42.655Z,25.37
2022-09-06T17:55:47.288Z,28.47
2022-09-06T18:01:49.095Z,26.37
2022-09-06T18:07:51.072Z,19.47
2022-09-06T18:13:57.354Z,26.40
2022-09-06T18:20:02.263Z,24.63
2022-09-06T18:26:08.002Z,32.77
2022-09-06T18:32:09.951Z,29.77
2022-09-06T18:38:12.835Z,41.07
2022-09-06T18:44:14.718Z,30.30
2022-09-06T18:50:17.304Z,17.37
2022-09-06T18:56:19.995Z,14.93
2022-09-06T19:02:23.640Z,15.63
2022-09-06T19:08:25.633Z,21.27
2022-09-06T19:14:27.610Z,24.63
2022-09-06T19:20:29.426Z,15.57
2022-09-06T19:26:34.272Z,16.57
2022-09-06T19:32:36.512Z,21.37
2022-09-06T19:38:59.578Z,28.13
2022-09-06T19:45:00.829Z,33.47
2022-09-06T19:51:08.295Z,32.00
2022-09-06T19:57:10.330Z,18.67
2022-09-06T20:03:12.475Z,13.83
2022-09-06T20:09:16.113Z,21.30
2022-09-06T20:15:17.949Z,18.10
2022-09-06T20:21:21.104Z,23.93
2022-09-06T20:27:23.026Z,17.17
2022-09-06T20:33:24.808Z,13.53
2022-09-06T20:39:26.686Z,17.00
2022-09-06T20:45:28.542Z,20.77
2022-09-06T20:51:31.287Z,17.93
2022-09-06T20:57:33.142Z,15.77
2022-09-06T21:03:38.638Z,21.40
2022-09-06T21:09:40.507Z,14.57
2022-09-06T21:15:42.438Z,25.03
2022-09-06T21:21:44.432Z,17.07
2022-09-06T21:27:46.241Z,14.80
2022-09-06T21:33:54.400Z,13.87
2022-09-06T21:39:56.270Z,19.87
2022-09-06T21:46:02.134Z,18.53
2022-09-06T21:52:04.145Z,17.97
2022-09-06T21:58:06.182Z,13.87
2022-09-06T22:04:08.464Z,15.37
2022-09-06T22:10:10.197Z,13.80
2022-09-06T22:16:13.215Z,24.50
2022-09-06T22:22:15.076Z,15.67
2022-09-06T22:28:16.879Z,16.33
2022-09-06T22:34:18.772Z,17.73
2022-09-06T22:40:20.726Z,16.67
2022-09-06T22:46:23.167Z,17.43
2022-09-06T22:52:25.029Z,17.27
2022-09-06T22:58:27.222Z,13.50
2022-09-06T23:04:29.192Z,15.50
2022-09-06T23:10:32.410Z,16.37
2022-09-06T23:16:34.369Z,16.97
2022-09-06T23:22:36.228Z,12.83
2022-09-06T23:28:39.032Z,10.60
2022-09-06T23:34:40.777Z,18.13
2022-09-06T23:40:42.493Z,15.87
2022-09-06T23:46:44.382Z,15.80
2022-09-06T23:52:46.404Z,15.43
2022-09-06T23:58:48.214Z,12.17
